createdAt,value
2022-09-04T00:00:00.000Z,1.61
2022-09-04T00:15:00.000Z,1.51
2022-09-04T00:30:00.000Z,1.66
2022-09-04T00:45:00.000Z,1.48
2022-09-04T01:00:00.000Z,1.44
2022-09-04T01:15:00.000Z,1.45
2022-09-04T01:30:00.000Z,1.53
2022-09-04T01:45:00.000Z,1.6
2022-09-04T02:15:00.000Z,1
2022-09-04T02:30:00.000Z,2
2022-09-04T02:30:00.000Z,1.65
2022-09-04T02:45:00.000Z,1.76
2022-09-04T03:00:00.000Z,1.39
2022-09-04T03:15:00.000Z,1.62
2022-09-04T03:30:00.000Z,1.44
2022-09-04T03:45:00.000Z,1.56
2022-09-04T04:00:00.000Z,1.87
2022-09-04T04:15:00.000Z,1.61
2022-09-04T04:30:00.000Z,1.49
2022-09-04T04:45:00.000Z,1.45
2022-09-04T05:00:00.000Z,1.88
2022-09-04T05:15:00.000Z,1.66
2022-09-04T05:30:00.000Z,1.51
2022-09-04T05:45:00.000Z,2.42
2022-09-04T06:00:00.000Z,1.38
2022-09-04T06:15:00.000Z,1.4
2022-09-04T06:30:00.000Z,1.54
2022-09-04T06:45:00.000Z,1.36
2022-09-04T07:00:00.000Z,1.54
2022-09-04T07:15:00.000Z,1.26
2022-09-04T07:30:00.000Z,1.36
2022-09-04T07:45:00.000Z,1.35
2022-09-04T08:00:00.000Z,1.26
2022-09-04T08:15:00.000Z,1.28
2022-09-04T08:30:00.000Z,1.47
2022-09-04T08:45:00.000Z,1.29
2022-09-04T09:00:00.000Z,1.39
2022-09-04T09:15:00.000Z,1.18
2022-09-04T09:30:00.000Z,1.4
2022-09-04T09:45:00.000Z,1.18
2022-09-04T10:00:00.000Z,1.24
2022-09-04T10:15:00.000Z,1.22
2022-09-04T10:30:00.000Z,1.52
2022-09-04T10:45:00.000Z,1.82
2022-09-04T11:00:00.000Z,1.73
2022-09-04T11:15:00.000Z,3.24
2022-09-04T11:30:00.000Z,2.39
2022-09-04T11:45:00.000Z,2.16
2022-09-04T12:00:00.000Z,2.24
2022-09-04T12:15:00.000Z,1.53
2022-09-04T12:30:00.000Z,1.76
2022-09-04T12:45:00.000Z,2.12
2022-09-04T13:00:00.000Z,1.92
2022-09-04T13:15:00.000Z,1.73
2022-09-04T13:30:00.000Z,1.72
2022-09-04T13:45:00.000Z,2.65
2022-09-04T14:00:00.000Z,2.76
2022-09-04T14:15:00.000Z,1.96
2022-09-04T14:30:00.000Z,2.02
2022-09-04T14:45:00.000Z,2.2
2022-09-04T15:15:00.000Z,2
2022-09-04T15:15:00.000Z,1.8
2022-09-04T15:30:00.000Z,2.06
2022-09-04T15:45:00.000Z,1.76
2022-09-04T16:00:00.000Z,2.13
2022-09-04T16:15:00.000Z,1.81
2022-09-04T16:30:00.000Z,1.86
2022-09-04T16:45:00.000Z,2.15
2022-09-04T17:00:00.000Z,3.04
2022-09-04T17:15:00.000Z,2.64
2022-09-04T17:30:00.000Z,3.08
2022-09-04T17:45:00.000Z,3.52
2022-09-04T18:00:00.000Z,7.08
2022-09-04T18:15:00.000Z,4.81
2022-09-04T18:30:00.000Z,4.84
2022-09-04T18:45:00.000Z,3.96
2022-09-04T19:00:00.000Z,4.84
2022-09-04T19:15:00.000Z,9.6
2022-09-04T19:30:00.000Z,12.39
2022-09-04T19:45:00.000Z,5.44
2022-09-04T20:00:00.000Z,3.87
2022-09-04T20:15:00.000Z,3.48
2022-09-04T20:30:00.000Z,3.65
2022-09-04T20:45:00.000Z,4.12
2022-09-04T21:00:00.000Z,3.84
2022-09-04T21:15:00.000Z,3.59
2022-09-04T21:30:00.000Z,4.34
2022-09-04T21:45:00.000Z,4.01
2022-09-04T22:00:00.000Z,4.02
2022-09-04T22:15:00.000Z,4.21
2022-09-04T22:30:00.000Z,4.56
2022-09-04T22:45:00.000Z,4.54
2022-09-04T23:00:00.000Z,4.75
2022-09-04T23:15:00.000Z,4.79
2022-09-04T23:30:00.000Z,4.27
2022-09-04T23:45:00.000Z,3.98
